Time;durP1;ratioP1;P1;durP2;ratioP2;P2;SDS_P1;SDS_P2;PMS_P1;PMS_P2;Temp;Humidity;BMP_temperature;BMP_pressure;BME280_temperature;BME280_humidity;BME280_pressure;Samples;Min_cycle;Max_cycle;Signal;HPM_P1;HPM_P2
2024/02/08 00:01:43;;;;;;;;;;;;;;;26.55;38.30;93405.56;5056623;28;7044;-38
2024/02/08 00:04:09;;;;;;;;;;;;;;;26.56;38.07;93403.53;5056375;28;7079;-38
2024/02/08 00:06:34;;;;;;;;;;;;;;;26.55;38.32;93400.06;5070572;28;7208;-38
2024/02/08 00:09:01;;;;;;;;;;;;;;;26.57;38.70;93407.78;5056693;28;7169;-38
2024/02/08 00:11:31;;;;;;;;;;;;;;;26.57;38.41;93402.25;5054722;28;7243;-39
2024/02/08 00:14:04;;;;;;;;;;;;;;;26.58;38.41;93400.97;5053960;28;9123;-38
2024/02/08 00:16:41;;;;;;;;;;;;;;;26.58;38.50;93410.00;5070342;28;7003;-40
2024/02/08 00:19:08;;;;;;;;;;;;;;;26.58;38.49;93406.47;5072925;28;9525;-39
2024/02/08 00:21:35;;;;;;;;;;;;;;;26.57;38.38;93407.78;5053295;28;7094;-38
2024/02/08 00:24:02;;;;;;;;;;;;;;;26.59;38.77;93407.97;5069024;28;7154;-38
2024/02/08 00:26:30;;;;;;;;;;;;;;;26.56;38.35;93407.03;5054851;28;9275;-38
2024/02/08 00:28:56;;;;;;;;;;;;;;;26.58;38.70;93415.50;5055080;28;9924;-38
2024/02/08 00:31:25;;;;;;;;;;;;;;;26.58;38.36;93412.00;5063323;28;9768;-37
2024/02/08 00:33:51;;;;;;;;;;;;;;;26.58;38.81;93406.47;5067224;28;7186;-38
2024/02/08 00:36:21;;;;;;;;;;;;;;;26.56;38.33;93400.78;5066912;28;9222;-37
2024/02/08 00:38:47;;;;;;;;;;;;;;;26.57;38.62;93399.50;5054255;28;7276;-37
2024/02/08 00:41:15;;;;;;;;;;;;;;;26.57;38.29;93410.53;5071877;28;7236;-38
2024/02/08 00:43:45;;;;;;;;;;;;;;;26.57;38.53;93402.25;5073633;28;7081;-37
2024/02/08 00:46:19;;;;;;;;;;;;;;;26.54;38.54;93395.06;5069645;28;8280;-37
2024/02/08 00:49:22;;;;;;;;;;;;;;;26.58;38.33;93398.22;5062023;28;9063;-37
2024/02/08 00:52:04;;;;;;;;;;;;;;;26.56;38.39;93400.78;4978506;28;7260;-37
2024/02/08 00:54:30;;;;;;;;;;;;;;;26.55;38.86;93394.53;4976421;28;7542;-38
2024/02/08 00:57:10;;;;;;;;;;;;;;;26.54;38.53;93393.06;4955950;28;9251;-38
2024/02/08 00:59:40;;;;;;;;;;;;;;;26.55;38.55;93389.03;4969749;28;7347;-37
2024/02/08 01:02:11;;;;;;;;;;;;;;;26.54;38.29;93387.53;4980730;28;9343;-37
2024/02/08 01:04:37;;;;;;;;;;;;;;;26.55;38.81;93393.78;4960207;28;7230;-37
2024/02/08 01:07:03;;;;;;;;;;;;;;;26.55;38.52;93389.03;4978553;28;9239;-37
2024/02/08 01:09:29;;;;;;;;;;;;;;;26.55;38.55;93388.28;4973280;28;8787;-37
2024/02/08 01:11:58;;;;;;;;;;;;;;;26.53;38.89;93380.56;4972081;28;9135;-37
2024/02/08 01:14:39;;;;;;;;;;;;;;;26.58;38.83;93393.44;4976393;28;6993;-37
2024/02/08 01:17:14;;;;;;;;;;;;;;;26.58;38.36;93385.16;4975429;28;9083;-37
2024/02/08 01:19:50;;;;;;;;;;;;;;;26.58;38.70;93389.94;4976051;28;7176;-37
2024/02/08 01:22:25;;;;;;;;;;;;;;;26.56;38.53;93384.22;4981970;28;7019;-38
2024/02/08 01:25:04;;;;;;;;;;;;;;;26.59;38.48;93394.19;4988247;28;9063;-37
2024/02/08 01:27:36;;;;;;;;;;;;;;;26.57;38.15;93391.22;5074131;28;7111;-37
2024/02/08 01:30:07;;;;;;;;;;;;;;;26.59;38.40;93388.66;5041428;28;8448;-37
2024/02/08 01:32:34;;;;;;;;;;;;;;;26.57;38.53;93388.47;5067893;28;10826;-40
2024/02/08 01:35:06;;;;;;;;;;;;;;;26.57;38.76;93394.00;5059013;28;7329;-41
2024/02/08 01:37:40;;;;;;;;;;;;;;;26.56;38.09;93389.75;5071626;28;7331;-40
2024/02/08 01:40:16;;;;;;;;;;;;;;;26.57;38.75;93388.47;5060899;28;7611;-40
2024/02/08 01:42:57;;;;;;;;;;;;;;;26.55;38.27;93385.53;5056013;28;9069;-40
2024/02/08 01:45:57;;;;;;;;;;;;;;;26.57;38.46;93394.00;5074019;28;7343;-40
2024/02/08 01:48:31;;;;;;;;;;;;;;;26.56;38.31;93396.00;5074411;28;7266;-40
2024/02/08 01:51:04;;;;;;;;;;;;;;;26.55;38.67;93393.78;5076091;28;9224;-40
2024/02/08 01:53:45;;;;;;;;;;;;;;;26.55;38.39;93388.28;5073850;28;7902;-41
2024/02/08 01:56:12;;;;;;;;;;;;;;;26.56;38.25;93392.50;5067054;28;7288;-40
2024/02/08 01:58:44;;;;;;;;;;;;;;;26.55;38.58;93385.53;5053781;28;7075;-40
2024/02/08 02:01:11;;;;;;;;;;;;;;;26.54;38.70;93381.28;5061108;28;7232;-40
2024/02/08 02:03:38;;;;;;;;;;;;;;;26.52;38.13;93367.28;5074533;28;9093;-40
2024/02/08 02:06:08;;;;;;;;;;;;;;;26.53;38.89;93366.03;5056085;28;8566;-39
2024/02/08 02:08:34;;;;;;;;;;;;;;;26.48;38.44;93373.16;5050487;28;7093;-40
2024/02/08 02:11:11;;;;;;;;;;;;;;;26.50;38.85;93369.84;5059916;28;7008;-40
2024/02/08 02:13:39;;;;;;;;;;;;;;;26.48;38.24;93367.63;5062241;28;9378;-41
2024/02/08 02:16:05;;;;;;;;;;;;;;;26.51;38.48;93363.06;5071355;28;7293;-40
2024/02/08 02:18:34;;;;;;;;;;;;;;;26.50;38.24;93361.56;5070398;28;7028;-40
2024/02/08 02:21:01;;;;;;;;;;;;;;;26.49;38.66;93360.13;5055935;28;6895;-41
2024/02/08 02:23:28;;;;;;;;;;;;;;;26.50;38.25;93358.81;5073789;28;7813;-39
2024/02/08 02:25:58;;;;;;;;;;;;;;;26.50;38.57;93345.78;5058504;28;7218;-40
2024/02/08 02:28:36;;;;;;;;;;;;;;;26.51;39.04;93357.56;5057540;28;9108;-40
2024/02/08 02:31:32;;;;;;;;;;;;;;;26.51;38.82;93354.78;5074604;28;9038;-40
2024/02/08 02:34:06;;;;;;;;;;;;;;;26.50;38.26;93347.78;5071441;28;9217;-41
2024/02/08 02:36:32;;;;;;;;;;;;;;;26.50;38.46;93358.81;5054955;28;9086;-39
2024/02/08 02:38:58;;;;;;;;;;;;;;;26.50;38.70;93351.28;5070813;28;7344;-40
2024/02/08 02:41:27;;;;;;;;;;;;;;;26.52;38.30;93342.47;5058344;28;6863;-55
2024/02/08 02:43:55;;;;;;;;;;;;;;;26.52;38.76;93345.97;5073131;28;9109;-55
2024/02/08 02:46:22;;;;;;;;;;;;;;;26.50;38.30;93342.28;5067125;28;7247;-55
2024/02/08 02:48:59;;;;;;;;;;;;;;;26.50;38.51;93342.28;5068601;28;9068;-55
2024/02/08 02:51:27;;;;;;;;;;;;;;;26.50;38.59;93342.28;5057078;28;9940;-55
2024/02/08 02:54:13;;;;;;;;;;;;;;;26.51;38.76;93336.22;5055264;28;7211;-55
2024/02/08 02:57:14;;;;;;;;;;;;;;;26.51;38.29;93344.47;5075150;28;9128;-55
2024/02/08 02:59:59;;;;;;;;;;;;;;;26.48;38.54;93336.56;4973827;28;7189;-56
2024/02/08 03:02:33;;;;;;;;;;;;;;;26.51;38.66;93352.75;4958790;28;7925;-55
2024/02/08 03:04:59;;;;;;;;;;;;;;;26.51;38.39;93343.75;4958201;28;7302;-56
2024/02/08 03:07:28;;;;;;;;;;;;;;;26.50;38.01;93343.03;4953630;28;8731;-55
2024/02/08 03:09:54;;;;;;;;;;;;;;;26.46;38.65;93333.63;4969948;28;7124;-55
2024/02/08 03:12:21;;;;;;;;;;;;;;;26.50;38.87;93342.28;4957445;28;7238;-55
2024/02/08 03:15:01;;;;;;;;;;;;;;;26.49;38.35;93343.56;4985125;28;7336;-55
2024/02/08 03:17:41;;;;;;;;;;;;;;;26.51;38.32;93346.53;4955586;28;7065;-55
2024/02/08 03:20:16;;;;;;;;;;;;;;;26.49;38.48;93349.81;4969793;28;7576;-55
2024/02/08 03:23:02;;;;;;;;;;;;;;;26.52;38.52;93343.22;4955754;28;7220;-53
2024/02/08 03:25:33;;;;;;;;;;;;;;;26.52;38.06;93331.44;4954398;28;9476;-55
2024/02/08 03:28:04;;;;;;;;;;;;;;;26.52;38.40;93334.19;4941212;28;9237;-55
2024/02/08 03:30:34;;;;;;;;;;;;;;;26.50;38.50;93325.72;4973894;28;6994;-55
2024/02/08 03:33:15;;;;;;;;;;;;;;;26.51;38.27;93321.72;4955723;28;7074;-55
2024/02/08 03:35:54;;;;;;;;;;;;;;;26.52;38.27;93325.94;5004011;28;7173;-54
2024/02/08 03:38:21;;;;;;;;;;;;;;;26.48;38.60;93317.25;5071239;28;7696;-55
2024/02/08 03:41:13;;;;;;;;;;;;;;;26.48;38.13;93328.28;5073525;28;7860;-55
2024/02/08 03:43:39;;;;;;;;;;;;;;;26.47;38.81;93324.06;5059548;28;7318;-55
2024/02/08 03:46:07;;;;;;;;;;;;;;;26.46;38.71;93317.81;5072123;28;7316;-55
2024/02/08 03:48:56;;;;;;;;;;;;;;;26.50;38.51;93328.50;5069824;28;7060;-55
2024/02/08 03:51:24;;;;;;;;;;;;;;;26.51;37.95;93327.22;5072792;28;7735;-38
2024/02/08 03:54:03;;;;;;;;;;;;;;;26.50;38.55;93329.22;5073841;28;7215;-37
2024/02/08 03:56:49;;;;;;;;;;;;;;;26.51;37.86;93327.22;5055781;28;7341;-37
2024/02/08 03:59:26;;;;;;;;;;;;;;;26.50;38.61;93325.72;5056577;28;7327;-37
2024/02/08 04:02:23;;;;;;;;;;;;;;;26.52;38.21;93328.69;5072915;28;7268;-37
2024/02/08 04:08:02;;;;;;;;;;;;;;;26.47;38.10;93329.59;4992535;28;7024;-38
2024/02/08 04:55:17;;;;;;;;;;;;;;;26.46;37.95;93287.47;4915920;29;7263;-37
2024/02/08 04:57:43;;;;;;;;;;;;;;;26.46;38.51;93292.25;4910113;29;8932;-37
2024/02/08 05:00:28;;;;;;;;;;;;;;;26.45;38.57;93285.25;4912572;29;7097;-37
2024/02/08 05:03:07;;;;;;;;;;;;;;;26.43;38.08;93279.53;4899652;29;6995;-56
2024/02/08 05:05:34;;;;;;;;;;;;;;;26.44;38.04;93281.78;4915441;29;9200;-56
2024/02/08 05:08:01;;;;;;;;;;;;;;;26.40;38.70;93284.16;4915197;29;7130;-56
2024/02/08 05:10:29;;;;;;;;;;;;;;;26.40;38.22;93278.63;4935494;29;8565;-57
2024/02/08 05:13:09;;;;;;;;;;;;;;;26.45;38.37;93285.25;4914891;29;7007;-57
2024/02/08 05:15:35;;;;;;;;;;;;;;;26.45;38.13;93274.22;4893561;29;9386;-57
2024/02/08 05:18:03;;;;;;;;;;;;;;;26.44;38.21;93267.25;4935136;29;9011;-56
2024/02/08 05:21:19;;;;;;;;;;;;;;;26.46;38.19;93262.66;5009862;28;9464;-56
2024/02/08 05:24:32;;;;;;;;;;;;;;;26.46;38.41;93262.66;5001774;28;8254;-56
2024/02/08 05:27:02;;;;;;;;;;;;;;;26.46;38.01;93261.94;4987941;28;7026;-56
2024/02/08 05:30:03;;;;;;;;;;;;;;;26.44;38.00;93245.19;4995968;28;7365;-57
2024/02/08 05:32:59;;;;;;;;;;;;;;;26.44;38.10;93245.94;4935685;28;7625;-57
2024/02/08 05:35:39;;;;;;;;;;;;;;;26.42;38.40;93251.25;4946683;28;7067;-56
2024/02/08 05:38:15;;;;;;;;;;;;;;;26.42;38.11;93247.75;4950834;28;9251;-56
2024/02/08 05:40:43;;;;;;;;;;;;;;;26.41;38.29;93249.75;4924119;29;7404;-56
2024/02/08 05:43:11;;;;;;;;;;;;;;;26.41;38.13;93246.25;4941698;28;7212;-56
2024/02/08 05:46:09;;;;;;;;;;;;;;;26.40;38.10;93244.81;4940324;28;9144;-56
2024/02/08 05:49:11;;;;;;;;;;;;;;;26.39;38.33;93227.53;4901707;29;9062;-56
2024/02/08 05:51:46;;;;;;;;;;;;;;;26.37;38.66;93229.34;4913393;29;9470;-56
2024/02/08 05:54:31;;;;;;;;;;;;;;;26.36;39.19;93230.63;4899530;29;7192;-55
2024/02/08 05:57:10;;;;;;;;;;;;;;;26.38;38.33;93228.78;4898337;29;7200;-56
2024/02/08 05:59:47;;;;;;;;;;;;;;;26.40;38.67;93222.75;4893859;29;6964;-57
2024/02/08 06:02:26;;;;;;;;;;;;;;;26.41;38.55;93219.44;4874874;29;7247;-41
2024/02/08 06:05:08;;;;;;;;;;;;;;;26.41;38.76;93221.44;4945049;28;7260;-40
2024/02/08 06:07:37;;;;;;;;;;;;;;;26.40;38.52;93211.72;4921452;28;9071;-40
2024/02/08 06:10:13;;;;;;;;;;;;;;;26.37;38.59;93215.56;4988515;28;9146;-40
2024/02/08 06:12:59;;;;;;;;;;;;;;;26.41;39.21;93218.69;4986436;28;7292;-40
2024/02/08 06:15:33;;;;;;;;;;;;;;;26.40;39.30;93211.72;4973367;28;10255;-40
2024/02/08 06:18:25;;;;;;;;;;;;;;;26.41;39.03;93197.38;4975178;28;7002;-40
2024/02/08 06:21:12;;;;;;;;;;;;;;;26.43;38.60;93202.34;4991167;28;7136;-40
2024/02/08 06:23:43;;;;;;;;;;;;;;;26.43;38.47;93207.84;4999377;28;6884;-39
2024/02/08 06:28:46;;;;;;;;;;;;;;;26.44;38.31;93206.59;5072229;28;9371;-40
2024/02/08 06:31:29;;;;;;;;;;;;;;;26.44;38.92;93212.84;5055480;28;7210;-40
2024/02/08 06:34:27;;;;;;;;;;;;;;;26.43;38.74;93214.13;5071359;28;7096;-40
2024/02/08 06:37:15;;;;;;;;;;;;;;;26.42;38.74;93206.41;5057259;28;7261;-40
2024/02/08 06:39:55;;;;;;;;;;;;;;;26.45;38.87;93216.31;5053581;28;9524;-40
2024/02/08 07:37:17;;;;;;;;;;;;;;;26.42;38.54;93209.16;4928497;28;9289;-37
2024/02/08 07:40:00;;;;;;;;;;;;;;;26.40;38.53;93206.94;4932752;29;7036;-38
2024/02/08 07:43:19;;;;;;;;;;;;;;;26.44;38.21;93218.38;4937673;28;7902;-38
2024/02/08 07:45:54;;;;;;;;;;;;;;;26.44;38.65;93221.13;4915144;29;7344;-37
2024/02/08 07:48:43;;;;;;;;;;;;;;;26.44;38.11;93234.16;4911303;29;9320;-37
2024/02/08 07:51:15;;;;;;;;;;;;;;;26.43;38.04;93235.44;4907068;29;6996;-37
2024/02/08 07:54:00;;;;;;;;;;;;;;;26.45;38.16;93235.63;4913371;29;9229;-38
2024/02/08 07:56:37;;;;;;;;;;;;;;;26.45;38.67;93230.09;4927802;29;8857;-37
2024/02/08 07:59:35;;;;;;;;;;;;;;;26.46;38.67;93232.34;4918566;29;7174;-37
2024/02/08 08:02:12;;;;;;;;;;;;;;;26.45;38.88;93250.16;4865894;29;7324;-37
2024/02/08 08:05:01;;;;;;;;;;;;;;;26.45;38.53;93252.16;4870513;29;7480;-37
2024/02/08 08:07:27;;;;;;;;;;;;;;;26.47;38.58;93247.59;4874104;29;7701;-37
2024/02/08 08:09:59;;;;;;;;;;;;;;;26.45;38.53;93239.13;4903122;28;7263;-37
2024/02/08 08:12:35;;;;;;;;;;;;;;;26.48;38.59;93240.06;4942438;28;6975;-38
2024/02/08 08:15:13;;;;;;;;;;;;;;;26.50;38.69;93259.56;4948377;28;9141;-37
2024/02/08 08:17:43;;;;;;;;;;;;;;;26.45;39.01;93255.66;4931586;28;7252;-38
2024/02/08 08:20:56;;;;;;;;;;;;;;;26.49;39.27;93250.53;4951901;28;9182;-37
2024/02/08 08:23:25;;;;;;;;;;;;;;;26.46;38.44;93234.34;4962705;28;7636;-38
2024/02/08 08:26:23;;;;;;;;;;;;;;;26.47;38.56;93222.78;4967949;28;7271;-38
2024/02/08 08:28:55;;;;;;;;;;;;;;;26.46;39.05;93209.53;4972198;28;10136;-38
2024/02/08 08:31:51;;;;;;;;;;;;;;;26.49;39.16;93203.66;4956944;28;7173;-38
2024/02/08 08:38:13;;;;;;;;;;;;;;;26.47;38.78;93213.78;4969410;28;8218;-38
2024/02/08 08:41:14;;;;;;;;;;;;;;;26.47;38.67;93211.75;4988889;28;8736;-38
2024/02/08 08:43:52;;;;;;;;;;;;;;;26.46;38.96;93212.28;4933885;29;7370;-38
2024/02/08 08:46:41;;;;;;;;;;;;;;;26.46;39.53;93204.03;4931844;29;9247;-38
2024/02/08 08:49:20;;;;;;;;;;;;;;;26.47;38.80;93194.47;4923300;29;7226;-38
2024/02/08 08:51:58;;;;;;;;;;;;;;;26.46;39.03;93201.25;4917510;29;7945;-38
2024/02/08 08:54:29;;;;;;;;;;;;;;;26.47;39.26;93203.47;4928290;29;9397;-38
2024/02/08 08:56:59;;;;;;;;;;;;;;;26.48;38.80;93210.47;4933601;29;7216;-38
2024/02/08 09:00:09;;;;;;;;;;;;;;;26.51;39.24;93222.44;4934668;29;7147;-38
2024/02/08 09:02:55;;;;;;;;;;;;;;;26.50;38.48;93223.69;4878388;29;7146;-38
2024/02/08 09:05:30;;;;;;;;;;;;;;;26.52;38.84;93223.91;4874932;29;7231;-38
2024/02/08 09:07:58;;;;;;;;;;;;;;;26.53;39.28;93220.63;4862728;29;7410;-38
2024/02/08 09:10:25;;;;;;;;;;;;;;;26.53;38.38;93215.09;4878228;29;9099;-38
2024/02/08 09:13:06;;;;;;;;;;;;;;;26.56;38.68;93227.03;4880387;29;8537;-38
2024/02/08 09:21:39;;;;;;;;;;;;;;;26.54;39.10;93221.31;4869855;29;9191;-38
2024/02/08 09:24:29;;;;;;;;;;;;;;;26.59;38.34;93228.72;4881495;29;9546;-38
2024/02/08 09:29:50;;;;;;;;;;;;;;;26.56;38.51;93238.81;4881668;29;9084;-38
2024/02/08 09:35:20;;;;;;;;;;;;;;;26.57;39.13;93234.03;4881181;29;7265;-38
2024/02/08 09:38:06;;;;;;;;;;;;;;;26.56;38.70;93222.25;4889337;28;7256;-38
2024/02/08 09:40:45;;;;;;;;;;;;;;;26.57;38.92;93225.75;4980773;28;7132;-38
2024/02/08 09:43:29;;;;;;;;;;;;;;;26.52;38.80;93221.88;4986911;28;7101;-38
2024/02/08 09:46:10;;;;;;;;;;;;;;;26.52;38.70;93229.41;4989646;28;8614;-38
2024/02/08 09:48:47;;;;;;;;;;;;;;;26.53;38.53;93225.38;4961357;28;9424;-38
2024/02/08 09:51:24;;;;;;;;;;;;;;;26.52;38.99;93210.84;4977669;28;7346;-38
2024/02/08 09:53:54;;;;;;;;;;;;;;;26.56;38.89;93219.50;5073762;28;7003;-38
2024/02/08 09:56:25;;;;;;;;;;;;;;;26.57;38.38;93223.00;5052776;28;6984;-38
2024/02/08 09:59:02;;;;;;;;;;;;;;;26.54;39.13;93222.06;5057097;28;7231;-38
2024/02/08 10:01:42;;;;;;;;;;;;;;;26.51;38.63;93205.88;5052978;28;6984;-38
2024/02/08 10:04:19;;;;;;;;;;;;;;;26.56;38.30;93213.25;5071080;28;7277;-37
2024/02/08 10:09:40;;;;;;;;;;;;;;;26.56;38.38;93214.00;5072495;28;9177;-38
2024/02/08 10:12:16;;;;;;;;;;;;;;;26.54;38.75;93208.28;5057849;28;6957;-38
2024/02/08 10:15:00;;;;;;;;;;;;;;;26.54;38.59;93213.81;5069615;28;7016;-38
2024/02/08 10:17:40;;;;;;;;;;;;;;;26.54;38.69;93207.53;5073369;28;7130;-37
2024/02/08 10:23:36;;;;;;;;;;;;;;;26.59;38.30;93215.66;5056444;28;9147;-37
2024/02/08 10:26:21;;;;;;;;;;;;;;;26.58;38.41;93213.44;5056009;28;8779;-38
2024/02/08 10:28:53;;;;;;;;;;;;;;;26.59;38.35;93218.44;5067730;28;7703;-37
2024/02/08 10:31:28;;;;;;;;;;;;;;;26.59;38.60;93223.19;5074184;28;7186;-38
2024/02/08 10:34:08;;;;;;;;;;;;;;;26.58;38.90;93216.19;5054971;28;7067;-38
2024/02/08 10:36:44;;;;;;;;;;;;;;;26.56;38.98;93218.75;5070607;28;6992;-37
2024/02/08 10:39:24;;;;;;;;;;;;;;;26.58;38.56;93224.47;5068342;28;7266;-38
2024/02/08 10:41:57;;;;;;;;;;;;;;;26.60;38.82;93213.66;5072408;28;9558;-38
2024/02/08 10:44:34;;;;;;;;;;;;;;;26.59;38.77;93229.47;5053970;28;7284;-39
2024/02/08 10:47:06;;;;;;;;;;;;;;;26.60;38.68;93224.69;5047985;28;7327;-39
2024/02/08 10:49:46;;;;;;;;;;;;;;;26.59;38.91;93220.44;5051010;28;9076;-39
2024/02/08 10:52:16;;;;;;;;;;;;;;;26.58;38.82;93224.47;5073177;28;7111;-39
2024/02/08 10:54:51;;;;;;;;;;;;;;;26.59;38.90;93229.47;5052488;28;8228;-39
2024/02/08 10:57:39;;;;;;;;;;;;;;;26.59;39.19;93223.94;5054056;28;7014;-39
2024/02/08 11:03:28;;;;;;;;;;;;;;;26.58;39.11;93235.50;4996562;28;7028;-38
2024/02/08 11:08:24;;;;;;;;;;;;;;;26.58;39.12;93216.19;4980016;28;9128;-38
2024/02/08 11:10:59;;;;;;;;;;;;;;;26.58;38.56;93227.22;4979119;28;6967;-39
2024/02/08 11:13:37;;;;;;;;;;;;;;;26.58;38.51;93205.91;4959129;28;7072;-38
2024/02/08 11:16:33;;;;;;;;;;;;;;;26.56;38.82;93207.72;4980782;28;8976;-39
2024/02/08 11:19:04;;;;;;;;;;;;;;;26.57;39.32;93198.94;4980761;28;7397;-40
2024/02/08 11:21:49;;;;;;;;;;;;;;;26.58;38.75;93194.88;4963580;28;7066;-39
2024/02/08 11:24:29;;;;;;;;;;;;;;;26.60;39.33;93191.59;4977460;28;7000;-39
2024/02/08 11:27:27;;;;;;;;;;;;;;;26.60;38.33;93189.56;4976433;28;8462;-39
2024/02/08 11:30:11;;;;;;;;;;;;;;;26.56;38.82;93188.44;4986472;28;7018;-39
2024/02/08 11:33:13;;;;;;;;;;;;;;;26.58;38.66;93183.09;4962805;28;7066;-39
2024/02/08 11:35:55;;;;;;;;;;;;;;;26.54;38.60;93169.69;4918238;29;9269;-39
2024/02/08 11:39:21;;;;;;;;;;;;;;;26.55;38.36;93168.41;4920966;29;7333;-40
2024/02/08 11:41:59;;;;;;;;;;;;;;;26.55;39.01;93162.16;4968724;28;8464;-39
2024/02/08 11:44:43;;;;;;;;;;;;;;;26.57;38.39;93154.81;4973131;28;9098;-39
2024/02/08 11:48:08;;;;;;;;;;;;;;;26.55;38.69;93151.88;4973262;28;7081;-39
2024/02/08 11:50:49;;;;;;;;;;;;;;;26.56;38.40;93141.53;4907242;29;9042;-39
2024/02/08 11:53:44;;;;;;;;;;;;;;;26.58;38.69;93138.97;4900143;29;7385;-42
2024/02/08 11:56:29;;;;;;;;;;;;;;;26.57;39.17;93132.00;4899259;29;7407;-41
2024/02/08 11:59:08;;;;;;;;;;;;;;;26.57;38.35;93123.72;4915600;29;7348;-41
2024/02/08 12:01:37;;;;;;;;;;;;;;;26.57;38.61;93115.47;4897168;29;7270;-41
2024/02/08 12:04:16;;;;;;;;;;;;;;;26.57;38.43;93115.47;4895071;29;7456;-42
2024/02/08 12:06:49;;;;;;;;;;;;;;;26.56;38.62;93117.47;4899054;29;9568;-41
2024/02/08 12:09:31;;;;;;;;;;;;;;;26.60;38.56;93114.38;4914860;29;7792;-40
2024/02/08 12:12:14;;;;;;;;;;;;;;;26.57;38.62;93102.41;4934814;28;7513;-41
2024/02/08 12:14:52;;;;;;;;;;;;;;;26.55;38.60;93095.97;4974218;28;8792;-41
2024/02/08 12:17:28;;;;;;;;;;;;;;;26.53;38.95;93091.00;4987377;28;9115;-41
2024/02/08 12:20:00;;;;;;;;;;;;;;;26.55;39.21;93090.44;4989228;28;7278;-42
2024/02/08 12:22:29;;;;;;;;;;;;;;;26.55;38.74;93085.69;5050414;28;6941;-43
2024/02/08 12:25:07;;;;;;;;;;;;;;;26.57;38.67;93082.38;5044970;28;7062;-40
2024/02/08 12:31:17;;;;;;;;;;;;;;;26.58;38.69;93078.31;5026285;28;9152;-41
2024/02/08 12:33:50;;;;;;;;;;;;;;;26.57;38.62;93083.09;5026750;28;6973;-41
2024/02/08 12:36:22;;;;;;;;;;;;;;;26.58;38.99;93078.31;5027805;28;7221;-40
2024/02/08 12:38:50;;;;;;;;;;;;;;;26.60;38.46;93070.25;5027654;28;7509;-41
2024/02/08 12:41:21;;;;;;;;;;;;;;;26.58;39.05;93065.25;5010904;28;7071;-41
2024/02/08 12:43:56;;;;;;;;;;;;;;;26.61;38.43;93063.44;5014554;28;7000;-41
2024/02/08 12:46:32;;;;;;;;;;;;;;;26.63;38.61;93052.59;5008824;28;7255;-40
2024/02/08 12:49:07;;;;;;;;;;;;;;;26.62;38.62;93051.13;5018669;28;7323;-41
2024/02/08 12:51:39;;;;;;;;;;;;;;;26.63;38.09;93047.81;5002982;28;7241;-42
2024/02/08 12:54:07;;;;;;;;;;;;;;;26.64;38.58;93043.03;5031454;28;7244;-42
2024/02/08 12:56:39;;;;;;;;;;;;;;;26.62;38.41;93040.81;5037930;28;7624;-40
2024/02/08 12:59:23;;;;;;;;;;;;;;;26.63;38.54;93033.28;5018629;28;7050;-43
2024/02/08 13:01:51;;;;;;;;;;;;;;;26.62;38.25;93037.34;5009216;28;7246;-40
2024/02/08 13:05:01;;;;;;;;;;;;;;;26.63;38.82;93038.78;5002411;28;8872;-40
2024/02/08 13:07:29;;;;;;;;;;;;;;;26.64;39.17;93035.47;5036094;28;7251;-40
2024/02/08 13:10:04;;;;;;;;;;;;;;;26.64;38.35;93029.97;5076900;28;7163;-40
2024/02/08 13:12:38;;;;;;;;;;;;;;;26.65;38.01;93027.94;5057866;28;9066;-41
2024/02/08 13:15:20;;;;;;;;;;;;;;;26.65;38.65;93022.44;5072283;28;9422;-40
2024/02/08 13:17:56;;;;;;;;;;;;;;;26.62;38.80;93012.53;5062455;28;9362;-40
2024/02/08 13:20:31;;;;;;;;;;;;;;;26.62;38.70;93018.75;5076788;28;7228;-41
2024/02/08 13:23:06;;;;;;;;;;;;;;;26.62;38.97;93009.75;5076539;28;7451;-41
2024/02/08 13:25:35;;;;;;;;;;;;;;;26.63;38.92;93009.19;5070487;28;8553;-40
2024/02/08 13:28:03;;;;;;;;;;;;;;;26.62;38.59;93004.25;5069810;28;7163;-41
2024/02/08 13:30:48;;;;;;;;;;;;;;;26.63;38.50;93009.19;5061811;28;9287;-40
2024/02/08 13:33:28;;;;;;;;;;;;;;;26.66;38.76;93004.63;5058998;28;9915;-43
2024/02/08 13:36:08;;;;;;;;;;;;;;;26.65;38.35;92983.81;5075243;28;8849;-40
2024/02/08 13:38:49;;;;;;;;;;;;;;;26.66;38.89;92990.81;5073299;28;7409;-40
2024/02/08 13:41:19;;;;;;;;;;;;;;;26.68;38.24;92982.72;5072990;28;7192;-41
2024/02/08 13:44:33;;;;;;;;;;;;;;;26.71;38.52;92973.34;5075959;28;7226;-41
2024/02/08 13:47:18;;;;;;;;;;;;;;;26.71;38.43;92963.03;4990715;28;8864;-41
2024/02/08 13:49:49;;;;;;;;;;;;;;;26.71;38.25;92965.06;4989077;28;7897;-42
2024/02/08 13:52:30;;;;;;;;;;;;;;;26.73;38.49;92959.78;4994834;28;8169;-40
2024/02/08 13:54:58;;;;;;;;;;;;;;;26.73;38.44;92957.75;4992097;28;9000;-43
2024/02/08 13:57:38;;;;;;;;;;;;;;;26.71;38.55;92945.75;4999756;28;9472;-42
2024/02/08 14:00:20;;;;;;;;;;;;;;;26.74;38.44;92952.97;4993366;28;7377;-41
2024/02/08 14:02:52;;;;;;;;;;;;;;;26.75;38.29;92943.41;4987534;28;6989;-41
2024/02/08 14:05:55;;;;;;;;;;;;;;;26.75;38.35;92932.38;4978522;28;9066;-41
2024/02/08 14:08:27;;;;;;;;;;;;;;;26.77;38.51;92925.00;4950898;28;7408;-41
2024/02/08 14:10:54;;;;;;;;;;;;;;;26.76;37.97;92912.50;4937946;28;9109;-40
2024/02/08 14:13:34;;;;;;;;;;;;;;;26.78;38.26;92901.66;4950646;28;7274;-41
2024/02/08 14:16:05;;;;;;;;;;;;;;;26.76;38.27;92892.47;4956094;28;7138;-41
2024/02/08 14:18:37;;;;;;;;;;;;;;;26.74;38.54;92887.50;4951970;28;7150;-41
2024/02/08 14:21:08;;;;;;;;;;;;;;;26.76;38.27;92892.47;4937213;28;6983;-41
2024/02/08 14:23:49;;;;;;;;;;;;;;;26.76;38.41;92895.97;4979201;28;6976;-41
2024/02/08 14:28:55;;;;;;;;;;;;;;;26.77;38.39;92891.91;5002021;28;9075;-41
2024/02/08 14:31:35;;;;;;;;;;;;;;;26.77;38.48;92893.94;5013194;28;7932;-41
2024/02/08 14:34:11;;;;;;;;;;;;;;;26.76;38.34;92881.44;5012055;28;8798;-40
2024/02/08 14:36:42;;;;;;;;;;;;;;;26.76;38.39;92884.19;5001249;28;9051;-41
2024/02/08 14:39:26;;;;;;;;;;;;;;;26.73;38.49;92872.22;5012700;28;8972;-40
2024/02/08 14:41:55;;;;;;;;;;;;;;;26.75;38.91;92864.13;5011365;28;9391;-40
2024/02/08 14:44:31;;;;;;;;;;;;;;;26.74;38.30;92864.69;5051537;28;7239;-41
2024/02/08 14:47:07;;;;;;;;;;;;;;;26.74;38.21;92859.91;5061822;28;9324;-41
2024/02/08 14:49:54;;;;;;;;;;;;;;;26.74;38.36;92865.44;5074575;28;7091;-41
2024/02/08 14:52:35;;;;;;;;;;;;;;;26.74;38.56;92876.47;5073339;28;7005;-41
2024/02/08 14:55:35;;;;;;;;;;;;;;;26.74;38.67;92867.47;5064240;28;9696;-41
2024/02/08 14:58:01;;;;;;;;;;;;;;;26.72;38.52;92862.47;4976687;28;7164;-41
2024/02/08 15:03:08;;;;;;;;;;;;;;;26.71;38.74;92860.25;4990090;28;6991;-41
2024/02/08 15:05:46;;;;;;;;;;;;;;;26.73;38.64;92852.22;4976952;28;6995;-41
2024/02/08 15:11:00;;;;;;;;;;;;;;;26.77;38.71;92844.28;4979223;28;7981;-40
2024/02/08 15:13:45;;;;;;;;;;;;;;;26.81;38.68;92842.63;4974124;28;8878;-42
2024/02/08 15:16:24;;;;;;;;;;;;;;;26.84;38.55;92843.50;4968557;28;8326;-42
2024/02/08 15:18:54;;;;;;;;;;;;;;;26.88;38.43;92843.91;4978892;28;8956;-42
2024/02/08 15:21:34;;;;;;;;;;;;;;;26.86;38.80;92836.16;4975461;28;9022;-56
2024/02/08 15:26:38;;;;;;;;;;;;;;;26.92;38.40;92824.94;4978410;28;7228;-56
2024/02/08 15:29:04;;;;;;;;;;;;;;;26.94;38.67;92822.34;4981977;28;8646;-56
2024/02/08 15:31:46;;;;;;;;;;;;;;;26.90;38.70;92811.69;4989566;28;7330;-56
2024/02/08 15:36:47;;;;;;;;;;;;;;;26.92;38.53;92800.81;5071324;28;7240;-56
2024/02/08 15:39:55;;;;;;;;;;;;;;;26.91;38.84;92798.63;5041819;28;7341;-56
2024/02/08 15:42:31;;;;;;;;;;;;;;;26.92;38.75;92786.31;5069671;28;7257;-56
2024/02/08 15:44:59;;;;;;;;;;;;;;;26.90;38.74;92789.59;5069756;28;7156;-56
2024/02/08 15:47:54;;;;;;;;;;;;;;;26.91;38.72;92787.59;5041135;28;9153;-55
2024/02/08 15:50:36;;;;;;;;;;;;;;;26.88;38.81;92778.41;5053521;28;7001;-57
2024/02/08 15:53:17;;;;;;;;;;;;;;;26.89;38.71;92776.38;5064565;28;9682;-56
2024/02/08 15:55:50;;;;;;;;;;;;;;;26.89;38.38;92777.13;5056571;28;9014;-56
2024/02/08 15:58:25;;;;;;;;;;;;;;;26.88;38.72;92769.41;5062214;28;9578;-56
2024/02/08 16:03:56;;;;;;;;;;;;;;;26.89;38.71;92759.81;5006538;28;7077;-56
2024/02/08 16:09:07;;;;;;;;;;;;;;;26.88;38.95;92741.81;5006447;28;7078;-56
2024/02/08 16:11:34;;;;;;;;;;;;;;;26.87;38.60;92737.59;4993991;28;9169;-56
2024/02/08 16:14:15;;;;;;;;;;;;;;;26.86;38.99;92741.66;4995912;28;9084;-57
2024/02/08 16:17:05;;;;;;;;;;;;;;;26.85;38.84;92737.41;5008089;28;8181;-57
2024/02/08 16:19:42;;;;;;;;;;;;;;;26.84;39.24;92724.91;5007079;28;7482;-56
2024/02/08 16:22:28;;;;;;;;;;;;;;;26.85;38.58;92720.84;4989951;28;7058;-57
2024/02/08 16:24:58;;;;;;;;;;;;;;;26.83;38.41;92713.16;4992741;28;7247;-58
2024/02/08 16:27:35;;;;;;;;;;;;;;;26.75;37.06;92714.47;5005486;28;7652;-57